sensor_id;sensor_type;location;lat;lon;timestamp;pressure;altitude;pressure_sealevel;temperature
34310;BMP280;61664;48.112;11.662;2022-10-17T00:00:47;96129.94;;;16.46
34310;BMP280;61664;48.112;11.662;2022-10-17T00:03:15;96136.56;;;16.45
34310;BMP280;61664;48.112;11.662;2022-10-17T00:05:45;96122.78;;;16.38
34310;BMP280;61664;48.112;11.662;2022-10-17T00:08:16;96132.63;;;16.41
34310;BMP280;61664;48.112;11.662;2022-10-17T00:10:44;96127.91;;;16.36
34310;BMP280;61664;48.112;11.662;2022-10-17T00:13:11;96129.84;;;16.35
34310;BMP280;61664;48.112;11.662;2022-10-17T00:15:43;96134.00;;;16.31
34310;BMP280;61664;48.112;11.662;2022-10-17T00:18:10;96131.75;;;16.29
34310;BMP280;61664;48.112;11.662;2022-10-17T00:20:37;96130.25;;;16.23
34310;BMP280;61664;48.112;11.662;2022-10-17T00:23:04;96142.03;;;16.25
34310;BMP280;61664;48.112;11.662;2022-10-17T00:25:31;96134.88;;;16.17
34310;BMP280;61664;48.112;11.662;2022-10-17T00:27:58;96142.47;;;16.18
34310;BMP280;61664;48.112;11.662;2022-10-17T00:30:25;96137.22;;;16.09
34310;BMP280;61664;48.112;11.662;2022-10-17T00:32:51;96132.31;;;16.07
34310;BMP280;61664;48.112;11.662;2022-10-17T00:35:18;96133.06;;;16.08
34310;BMP280;61664;48.112;11.662;2022-10-17T00:37:45;96136.19;;;16.01
34310;BMP280;61664;48.112;11.662;2022-10-17T00:40:12;96133.69;;;15.97
34310;BMP280;61664;48.112;11.662;2022-10-17T00:42:39;96142.06;;;15.99
34310;BMP280;61664;48.112;11.662;2022-10-17T00:45:16;96136.81;;;15.90
34310;BMP280;61664;48.112;11.662;2022-10-17T00:48:06;96139.50;;;15.90
34310;BMP280;61664;48.112;11.662;2022-10-17T00:50:37;96137.00;;;15.81
34310;BMP280;61664;48.112;11.662;2022-10-17T00:53:07;96142.38;;;15.81
34310;BMP280;61664;48.112;11.662;2022-10-17T00:55:42;96146.75;;;15.79
34310;BMP280;61664;48.112;11.662;2022-10-17T00:58:11;96156.28;;;15.80
34310;BMP280;61664;48.112;11.662;2022-10-17T01:00:38;96153.34;;;15.78
34310;BMP280;61664;48.112;11.662;2022-10-17T01:03:06;96158.94;;;15.74
34310;BMP280;61664;48.112;11.662;2022-10-17T01:05:33;96163.34;;;15.71
34310;BMP280;61664;48.112;11.662;2022-10-17T01:10:43;96157.16;;;15.65
34310;BMP280;61664;48.112;11.662;2022-10-17T01:16:35;96165.38;;;15.56
34310;BMP280;61664;48.112;11.662;2022-10-17T01:20:04;96152.31;;;15.49
34310;BMP280;61664;48.112;11.662;2022-10-17T01:31:20;96150.69;;;15.37
34310;BMP280;61664;48.112;11.662;2022-10-17T01:36:55;96143.97;;;15.27
34310;BMP280;61664;48.112;11.662;2022-10-17T01:39:59;96143.69;;;15.25
34310;BMP280;61664;48.112;11.662;2022-10-17T01:45:39;96140.88;;;15.14
34310;BMP280;61664;48.112;11.662;2022-10-17T01:48:20;96137.72;;;15.15
34310;BMP280;61664;48.112;11.662;2022-10-17T01:50:53;96130.22;;;15.05
34310;BMP280;61664;48.112;11.662;2022-10-17T01:53:38;96135.84;;;15.07
34310;BMP280;61664;48.112;11.662;2022-10-17T01:56:10;96138.09;;;15.08
34310;BMP280;61664;48.112;11.662;2022-10-17T01:58:48;96144.63;;;15.01
34310;BMP280;61664;48.112;11.662;2022-10-17T02:01:17;96132.66;;;15.02
34310;BMP280;61664;48.112;11.662;2022-10-17T02:03:48;96125.50;;;14.99
34310;BMP280;61664;48.112;11.662;2022-10-17T02:06:16;96132.94;;;15.05
34310;BMP280;61664;48.112;11.662;2022-10-17T02:08:47;96125.59;;;15.05
34310;BMP280;61664;48.112;11.662;2022-10-17T02:11:24;96132.69;;;15.08
34310;BMP280;61664;48.112;11.662;2022-10-17T02:16:46;96133.66;;;15.05
34310;BMP280;61664;48.112;11.662;2022-10-17T02:31:15;96139.66;;;14.94
34310;BMP280;61664;48.112;11.662;2022-10-17T02:33:49;96135.19;;;14.91
34310;BMP280;61664;48.112;11.662;2022-10-17T02:36:25;96140.84;;;14.93
34310;BMP280;61664;48.112;11.662;2022-10-17T02:38:55;96140.56;;;14.91
34310;BMP280;61664;48.112;11.662;2022-10-17T02:41:24;96141.00;;;14.90
34310;BMP280;61664;48.112;11.662;2022-10-17T02:43:52;96147.63;;;14.89
34310;BMP280;61664;48.112;11.662;2022-10-17T02:46:24;96133.63;;;14.85
34310;BMP280;61664;48.112;11.662;2022-10-17T02:51:52;96144.28;;;14.79
34310;BMP280;61664;48.112;11.662;2022-10-17T02:54:38;96140.25;;;14.69
34310;BMP280;61664;48.112;11.662;2022-10-17T02:57:18;96136.34;;;14.70
34310;BMP280;61664;48.112;11.662;2022-10-17T02:59:48;96137.38;;;14.73
34310;BMP280;61664;48.112;11.662;2022-10-17T03:02:16;96140.16;;;14.63
34310;BMP280;61664;48.112;11.662;2022-10-17T03:04:45;96131.16;;;14.66
34310;BMP280;61664;48.112;11.662;2022-10-17T03:07:12;96142.66;;;14.67
34310;BMP280;61664;48.112;11.662;2022-10-17T03:09:39;96129.13;;;14.61
34310;BMP280;61664;48.112;11.662;2022-10-17T03:12:06;96140.34;;;14.60
34310;BMP280;61664;48.112;11.662;2022-10-17T03:14:33;96148.41;;;14.60
34310;BMP280;61664;48.112;11.662;2022-10-17T03:17:00;96137.56;;;14.54
34310;BMP280;61664;48.112;11.662;2022-10-17T03:19:27;96138.22;;;14.49
34310;BMP280;61664;48.112;11.662;2022-10-17T03:21:53;96136.19;;;14.44
34310;BMP280;61664;48.112;11.662;2022-10-17T03:24:20;96149.19;;;14.46
34310;BMP280;61664;48.112;11.662;2022-10-17T03:26:47;96144.72;;;14.43
34310;BMP280;61664;48.112;11.662;2022-10-17T03:29:14;96152.63;;;14.46
34310;BMP280;61664;48.112;11.662;2022-10-17T03:31:41;96141.03;;;14.40
34310;BMP280;61664;48.112;11.662;2022-10-17T03:34:08;96154.56;;;14.46
34310;BMP280;61664;48.112;11.662;2022-10-17T03:36:35;96147.16;;;14.41
34310;BMP280;61664;48.112;11.662;2022-10-17T03:39:02;96148.91;;;14.44
34310;BMP280;61664;48.112;11.662;2022-10-17T03:41:29;96150.28;;;14.39
34310;BMP280;61664;48.112;11.662;2022-10-17T03:43:55;96141.19;;;14.37
34310;BMP280;61664;48.112;11.662;2022-10-17T03:46:22;96148.81;;;14.38
34310;BMP280;61664;48.112;11.662;2022-10-17T03:48:49;96153.19;;;14.36
34310;BMP280;61664;48.112;11.662;2022-10-17T03:51:16;96155.31;;;14.31
34310;BMP280;61664;48.112;11.662;2022-10-17T03:53:43;96158.91;;;14.28
34310;BMP280;61664;48.112;11.662;2022-10-17T03:56:17;96172.00;;;14.36
34310;BMP280;61664;48.112;11.662;2022-10-17T03:58:45;96171.72;;;14.34
34310;BMP280;61664;48.112;11.662;2022-10-17T04:01:14;96160.41;;;14.29
34310;BMP280;61664;48.112;11.662;2022-10-17T04:03:42;96161.59;;;14.28
34310;BMP280;61664;48.112;11.662;2022-10-17T04:06:11;96155.09;;;14.20
34310;BMP280;61664;48.112;11.662;2022-10-17T04:08:40;96158.84;;;14.23
34310;BMP280;61664;48.112;11.662;2022-10-17T04:11:13;96159.31;;;14.21
34310;BMP280;61664;48.112;11.662;2022-10-17T04:13:40;96173.63;;;14.18
34310;BMP280;61664;48.112;11.662;2022-10-17T04:16:14;96159.00;;;14.05
34310;BMP280;61664;48.112;11.662;2022-10-17T04:18:42;96181.34;;;14.11
34310;BMP280;61664;48.112;11.662;2022-10-17T04:21:10;96185.69;;;14.08
34310;BMP280;61664;48.112;11.662;2022-10-17T04:23:38;96178.06;;;14.07
34310;BMP280;61664;48.112;11.662;2022-10-17T04:26:05;96177.72;;;13.99
34310;BMP280;61664;48.112;11.662;2022-10-17T04:28:32;96171.75;;;13.95
34310;BMP280;61664;48.112;11.662;2022-10-17T04:31:10;96169.53;;;13.93
34310;BMP280;61664;48.112;11.662;2022-10-17T04:33:37;96180.56;;;13.95
34310;BMP280;61664;48.112;11.662;2022-10-17T04:36:10;96185.19;;;13.95
34310;BMP280;61664;48.112;11.662;2022-10-17T04:38:38;96169.16;;;13.86
34310;BMP280;61664;48.112;11.662;2022-10-17T04:41:09;96174.78;;;13.88
34310;BMP280;61664;48.112;11.662;2022-10-17T04:43:38;96179.91;;;13.86
34310;BMP280;61664;48.112;11.662;2022-10-17T04:46:09;96166.38;;;13.80
34310;BMP280;61664;48.112;11.662;2022-10-17T04:48:38;96183.06;;;13.84
34310;BMP280;61664;48.112;11.662;2022-10-17T04:51:10;96172.19;;;13.79
34310;BMP280;61664;48.112;11.662;2022-10-17T04:53:38;96184.88;;;13.78
34310;BMP280;61664;48.112;11.662;2022-10-17T04:58:39;96191.00;;;13.79
34310;BMP280;61664;48.112;11.662;2022-10-17T05:01:26;96186.72;;;13.72
34310;BMP280;61664;48.112;11.662;2022-10-17T05:03:53;96192.09;;;13.72
34310;BMP280;61664;48.112;11.662;2022-10-17T05:06:24;96193.59;;;13.73
34310;BMP280;61664;48.112;11.662;2022-10-17T05:08:53;96199.84;;;13.70
34310;BMP280;61664;48.112;11.662;2022-10-17T05:11:28;96203.00;;;13.69
34310;BMP280;61664;48.112;11.662;2022-10-17T05:14:00;96194.66;;;13.67
34310;BMP280;61664;48.112;11.662;2022-10-17T05:16:29;96207.16;;;13.70
34310;BMP280;61664;48.112;11.662;2022-10-17T05:18:58;96200.03;;;13.67
34310;BMP280;61664;48.112;11.662;2022-10-17T05:21:28;96210.31;;;13.68
34310;BMP280;61664;48.112;11.662;2022-10-17T05:23:55;96206.31;;;13.64
34310;BMP280;61664;48.112;11.662;2022-10-17T05:26:23;96210.78;;;13.67
34310;BMP280;61664;48.112;11.662;2022-10-17T05:28:51;96217.66;;;13.68
34310;BMP280;61664;48.112;11.662;2022-10-17T05:31:19;96212.44;;;13.64
34310;BMP280;61664;48.112;11.662;2022-10-17T05:33:46;96220.78;;;13.66
34310;BMP280;61664;48.112;11.662;2022-10-17T05:36:13;96215.56;;;13.63
34310;BMP280;61664;48.112;11.662;2022-10-17T05:38:40;96214.13;;;13.62
34310;BMP280;61664;48.112;11.662;2022-10-17T05:41:08;96212.31;;;13.58
34310;BMP280;61664;48.112;11.662;2022-10-17T05:43:35;96217.41;;;13.56
34310;BMP280;61664;48.112;11.662;2022-10-17T05:46:04;96226.94;;;13.57
34310;BMP280;61664;48.112;11.662;2022-10-17T05:48:32;96223.69;;;13.53
34310;BMP280;61664;48.112;11.662;2022-10-17T05:51:03;96229.06;;;13.53
34310;BMP280;61664;48.112;11.662;2022-10-17T05:53:33;96224.03;;;13.46
34310;BMP280;61664;48.112;11.662;2022-10-17T05:56:03;96228.19;;;13.47
34310;BMP280;61664;48.112;11.662;2022-10-17T05:58:31;96237.13;;;13.53
34310;BMP280;61664;48.112;11.662;2022-10-17T06:01:19;96245.28;;;13.59
34310;BMP280;61664;48.112;11.662;2022-10-17T06:03:46;96233.50;;;13.56
34310;BMP280;61664;48.112;11.662;2022-10-17T06:06:14;96251.53;;;13.65
34310;BMP280;61664;48.112;11.662;2022-10-17T06:08:42;96251.72;;;13.62
34310;BMP280;61664;48.112;11.662;2022-10-17T06:11:10;96267.00;;;13.70
34310;BMP280;61664;48.112;11.662;2022-10-17T06:13:39;96265.63;;;13.75
34310;BMP280;61664;48.112;11.662;2022-10-17T06:16:07;96257.13;;;13.76
34310;BMP280;61664;48.112;11.662;2022-10-17T06:18:34;96263.06;;;13.80
34310;BMP280;61664;48.112;11.662;2022-10-17T06:21:05;96266.31;;;13.84
34310;BMP280;61664;48.112;11.662;2022-10-17T06:23:35;96270.31;;;13.89
34310;BMP280;61664;48.112;11.662;2022-10-17T06:26:04;96259.56;;;13.89
34310;BMP280;61664;48.112;11.662;2022-10-17T06:28:32;96268.94;;;13.93
34310;BMP280;61664;48.112;11.662;2022-10-17T06:31:08;96264.59;;;13.96
34310;BMP280;61664;48.112;11.662;2022-10-17T06:33:36;96267.84;;;14.00
34310;BMP280;61664;48.112;11.662;2022-10-17T06:36:05;96260.09;;;14.02
34310;BMP280;61664;48.112;11.662;2022-10-17T06:38:36;96264.56;;;14.05
34310;BMP280;61664;48.112;11.662;2022-10-17T06:41:14;96262.31;;;14.04
34310;BMP280;61664;48.112;11.662;2022-10-17T06:43:43;96265.66;;;14.13
34310;BMP280;61664;48.112;11.662;2022-10-17T06:46:16;96268.00;;;14.20
34310;BMP280;61664;48.112;11.662;2022-10-17T06:48:43;96264.66;;;14.25
34310;BMP280;61664;48.112;11.662;2022-10-17T06:51:11;96273.59;;;14.31
34310;BMP280;61664;48.112;11.662;2022-10-17T06:53:39;96278.31;;;14.37
34310;BMP280;61664;48.112;11.662;2022-10-17T06:56:08;96272.59;;;14.44
34310;BMP280;61664;48.112;11.662;2022-10-17T06:58:37;96278.44;;;14.57
34310;BMP280;61664;48.112;11.662;2022-10-17T07:01:10;96281.69;;;14.61
34310;BMP280;61664;48.112;11.662;2022-10-17T07:03:38;96283.66;;;14.75
34310;BMP280;61664;48.112;11.662;2022-10-17T07:06:07;96285.03;;;14.85
34310;BMP280;61664;48.112;11.662;2022-10-17T07:08:33;96289.09;;;15.10
34310;BMP280;61664;48.112;11.662;2022-10-17T07:11:13;96285.34;;;15.57
34310;BMP280;61664;48.112;11.662;2022-10-17T07:13:41;96293.56;;;16.29
34310;BMP280;61664;48.112;11.662;2022-10-17T07:16:09;96287.38;;;17.06
34310;BMP280;61664;48.112;11.662;2022-10-17T07:18:36;96289.31;;;17.91
34310;BMP280;61664;48.112;11.662;2022-10-17T07:21:05;96290.44;;;18.71
34310;BMP280;61664;48.112;11.662;2022-10-17T07:23:35;96304.63;;;19.44
34310;BMP280;61664;48.112;11.662;2022-10-17T07:26:10;96303.31;;;20.14
34310;BMP280;61664;48.112;11.662;2022-10-17T07:28:44;96305.56;;;20.81
34310;BMP280;61664;48.112;11.662;2022-10-17T07:31:17;96300.25;;;21.43
34310;BMP280;61664;48.112;11.662;2022-10-17T07:33:44;96314.69;;;22.13
34310;BMP280;61664;48.112;11.662;2022-10-17T07:36:17;96307.94;;;22.78
34310;BMP280;61664;48.112;11.662;2022-10-17T07:38:44;96322.50;;;23.38
34310;BMP280;61664;48.112;11.662;2022-10-17T07:41:11;96322.06;;;23.95
34310;BMP280;61664;48.112;11.662;2022-10-17T07:43:46;96330.75;;;24.48
34310;BMP280;61664;48.112;11.662;2022-10-17T07:46:13;96324.78;;;24.98
34310;BMP280;61664;48.112;11.662;2022-10-17T07:48:40;96331.63;;;25.56
34310;BMP280;61664;48.112;11.662;2022-10-17T07:51:08;96335.78;;;26.16
34310;BMP280;61664;48.112;11.662;2022-10-17T07:53:37;96327.97;;;26.42
34310;BMP280;61664;48.112;11.662;2022-10-17T07:56:08;96328.19;;;26.67
34310;BMP280;61664;48.112;11.662;2022-10-17T07:58:36;96330.16;;;26.89
34310;BMP280;61664;48.112;11.662;2022-10-17T08:01:07;96341.97;;;27.15
34310;BMP280;61664;48.112;11.662;2022-10-17T08:03:42;96341.03;;;27.27
34310;BMP280;61664;48.112;11.662;2022-10-17T08:06:11;96336.94;;;27.44
34310;BMP280;61664;48.112;11.662;2022-10-17T08:08:38;96344.97;;;27.82
34310;BMP280;61664;48.112;11.662;2022-10-17T08:11:08;96337.34;;;28.05
34310;BMP280;61664;48.112;11.662;2022-10-17T08:13:37;96340.47;;;28.26
34310;BMP280;61664;48.112;11.662;2022-10-17T08:16:07;96345.56;;;28.54
34310;BMP280;61664;48.112;11.662;2022-10-17T08:18:37;96346.47;;;28.74
34310;BMP280;61664;48.112;11.662;2022-10-17T08:21:04;96344.31;;;29.07
34310;BMP280;61664;48.112;11.662;2022-10-17T08:23:32;96345.69;;;29.59
34310;BMP280;61664;48.112;11.662;2022-10-17T08:26:00;96349.09;;;30.04
34310;BMP280;61664;48.112;11.662;2022-10-17T08:28:27;96340.03;;;30.30
34310;BMP280;61664;48.112;11.662;2022-10-17T08:31:07;96336.16;;;30.43
34310;BMP280;61664;48.112;11.662;2022-10-17T08:33:34;96329.97;;;30.71
34310;BMP280;61664;48.112;11.662;2022-10-17T08:36:03;96348.84;;;30.94
34310;BMP280;61664;48.112;11.662;2022-10-17T08:38:32;96351.44;;;30.92
34310;BMP280;61664;48.112;11.662;2022-10-17T08:46:51;96345.09;;;30.99
34310;BMP280;61664;48.112;11.662;2022-10-17T08:49:48;96348.69;;;31.11
34310;BMP280;61664;48.112;11.662;2022-10-17T08:55:17;96345.25;;;32.01
34310;BMP280;61664;48.112;11.662;2022-10-17T08:57:46;96323.22;;;32.13
34310;BMP280;61664;48.112;11.662;2022-10-17T09:00:18;96332.38;;;32.46
34310;BMP280;61664;48.112;11.662;2022-10-17T09:06:26;96346.41;;;33.25
34310;BMP280;61664;48.112;11.662;2022-10-17T09:14:56;96341.97;;;33.32
34310;BMP280;61664;48.112;11.662;2022-10-17T09:18:01;96344.00;;;33.43
34310;BMP280;61664;48.112;11.662;2022-10-17T09:20:39;96352.13;;;33.62
34310;BMP280;61664;48.112;11.662;2022-10-17T09:23:14;96354.78;;;33.72
34310;BMP280;61664;48.112;11.662;2022-10-17T09:25:47;96341.28;;;34.01
34310;BMP280;61664;48.112;11.662;2022-10-17T09:28:30;96343.88;;;34.45
34310;BMP280;61664;48.112;11.662;2022-10-17T09:31:11;96348.78;;;34.59
34310;BMP280;61664;48.112;11.662;2022-10-17T09:33:43;96350.31;;;34.62
34310;BMP280;61664;48.112;11.662;2022-10-17T09:36:37;96350.19;;;34.60
34310;BMP280;61664;48.112;11.662;2022-10-17T09:39:14;96351.53;;;34.59
34310;BMP280;61664;48.112;11.662;2022-10-17T09:41:48;96353.44;;;34.68
34310;BMP280;61664;48.112;11.662;2022-10-17T09:44:37;96348.41;;;34.89
34310;BMP280;61664;48.112;11.662;2022-10-17T09:47:50;96352.19;;;35.21
34310;BMP280;61664;48.112;11.662;2022-10-17T09:50:30;96363.41;;;35.62
34310;BMP280;61664;48.112;11.662;2022-10-17T09:53:17;96363.00;;;35.68
34310;BMP280;61664;48.112;11.662;2022-10-17T09:55:51;96354.81;;;35.83
34310;BMP280;61664;48.112;11.662;2022-10-17T09:58:21;96356.59;;;36.33
34310;BMP280;61664;48.112;11.662;2022-10-17T10:00:49;96357.69;;;36.55
34310;BMP280;61664;48.112;11.662;2022-10-17T10:03:20;96354.81;;;36.83
34310;BMP280;61664;48.112;11.662;2022-10-17T10:06:24;96358.28;;;37.28
34310;BMP280;61664;48.112;11.662;2022-10-17T10:08:54;96375.63;;;37.26
34310;BMP280;61664;48.112;11.662;2022-10-17T10:11:44;96369.47;;;36.69
34310;BMP280;61664;48.112;11.662;2022-10-17T10:16:47;96367.38;;;36.84
34310;BMP280;61664;48.112;11.662;2022-10-17T10:19:33;96370.53;;;37.52
34310;BMP280;61664;48.112;11.662;2022-10-17T10:22:21;96365.47;;;37.64
34310;BMP280;61664;48.112;11.662;2022-10-17T10:25:14;96356.22;;;37.60
34310;BMP280;61664;48.112;11.662;2022-10-17T10:27:44;96361.78;;;38.09
34310;BMP280;61664;48.112;11.662;2022-10-17T10:30:27;96368.78;;;38.61
34310;BMP280;61664;48.112;11.662;2022-10-17T10:32:58;96369.59;;;38.81
34310;BMP280;61664;48.112;11.662;2022-10-17T10:35:35;96376.97;;;38.39
34310;BMP280;61664;48.112;11.662;2022-10-17T10:38:09;96364.59;;;37.44
34310;BMP280;61664;48.112;11.662;2022-10-17T10:40:55;96365.31;;;36.84
34310;BMP280;61664;48.112;11.662;2022-10-17T10:43:53;96362.63;;;36.14
34310;BMP280;61664;48.112;11.662;2022-10-17T10:46:25;96371.63;;;35.46
34310;BMP280;61664;48.112;11.662;2022-10-17T10:48:56;96372.75;;;34.66
34310;BMP280;61664;48.112;11.662;2022-10-17T10:51:41;96367.56;;;33.77
34310;BMP280;61664;48.112;11.662;2022-10-17T10:54:32;96368.63;;;32.83
34310;BMP280;61664;48.112;11.662;2022-10-17T10:57:03;96375.84;;;31.93
34310;BMP280;61664;48.112;11.662;2022-10-17T10:59:49;96369.31;;;31.00
34310;BMP280;61664;48.112;11.662;2022-10-17T11:02:25;96371.09;;;30.31
34310;BMP280;61664;48.112;11.662;2022-10-17T11:05:19;96369.16;;;29.78
34310;BMP280;61664;48.112;11.662;2022-10-17T11:08:18;96362.16;;;29.50
34310;BMP280;61664;48.112;11.662;2022-10-17T11:13:31;96359.50;;;28.91
34310;BMP280;61664;48.112;11.662;2022-10-17T11:18:48;96349.22;;;28.32
34310;BMP280;61664;48.112;11.662;2022-10-17T11:21:26;96360.84;;;28.23
34310;BMP280;61664;48.112;11.662;2022-10-17T11:26:45;96345.75;;;27.74
34310;BMP280;61664;48.112;11.662;2022-10-17T11:29:12;96345.13;;;27.51
34310;BMP280;61664;48.112;11.662;2022-10-17T11:31:48;96340.25;;;27.34
34310;BMP280;61664;48.112;11.662;2022-10-17T11:34:31;96359.50;;;27.27
34310;BMP280;61664;48.112;11.662;2022-10-17T11:37:05;96337.59;;;27.12
34310;BMP280;61664;48.112;11.662;2022-10-17T11:39:56;96351.47;;;27.14
34310;BMP280;61664;48.112;11.662;2022-10-17T11:45:24;96352.97;;;27.07
34310;BMP280;61664;48.112;11.662;2022-10-17T11:48:09;96342.56;;;26.98
34310;BMP280;61664;48.112;11.662;2022-10-17T11:50:44;96345.66;;;26.95
34310;BMP280;61664;48.112;11.662;2022-10-17T11:54:23;96352.25;;;26.84
34310;BMP280;61664;48.112;11.662;2022-10-17T12:03:21;96350.06;;;26.75
34310;BMP280;61664;48.112;11.662;2022-10-17T12:05:56;96355.59;;;26.67
34310;BMP280;61664;48.112;11.662;2022-10-17T12:11:50;96348.63;;;26.66
34310;BMP280;61664;48.112;11.662;2022-10-17T12:14:42;96353.00;;;26.69
34310;BMP280;61664;48.112;11.662;2022-10-17T12:17:36;96332.91;;;26.67
34310;BMP280;61664;48.112;11.662;2022-10-17T12:23:05;96345.69;;;26.79
34310;BMP280;61664;48.112;11.662;2022-10-17T12:26:02;96336.91;;;26.81
34310;BMP280;61664;48.112;11.662;2022-10-17T12:28:40;96337.66;;;26.89
34310;BMP280;61664;48.112;11.662;2022-10-17T12:38:50;96323.50;;;27.15
34310;BMP280;61664;48.112;11.662;2022-10-17T12:46:49;96330.94;;;27.30
34310;BMP280;61664;48.112;11.662;2022-10-17T12:49:50;96331.66;;;27.38
34310;BMP280;61664;48.112;11.662;2022-10-17T12:55:08;96314.84;;;27.34
34310;BMP280;61664;48.112;11.662;2022-10-17T13:00:36;96319.91;;;27.45
34310;BMP280;61664;48.112;11.662;2022-10-17T13:03:16;96329.94;;;27.58
34310;BMP280;61664;48.112;11.662;2022-10-17T13:05:52;96336.66;;;27.57
34310;BMP280;61664;48.112;11.662;2022-10-17T13:08:28;96322.75;;;27.62
34310;BMP280;61664;48.112;11.662;2022-10-17T13:10:56;96331.28;;;27.74
34310;BMP280;61664;48.112;11.662;2022-10-17T13:13:45;96331.44;;;27.84
34310;BMP280;61664;48.112;11.662;2022-10-17T13:16:35;96317.69;;;27.84
34310;BMP280;61664;48.112;11.662;2022-10-17T13:19:16;96338.13;;;27.98
34310;BMP280;61664;48.112;11.662;2022-10-17T13:22:16;96323.25;;;28.01
34310;BMP280;61664;48.112;11.662;2022-10-17T13:24:44;96321.03;;;28.07
34310;BMP280;61664;48.112;11.662;2022-10-17T13:27:26;96323.97;;;28.09
34310;BMP280;61664;48.112;11.662;2022-10-17T13:30:00;96321.69;;;28.15
34310;BMP280;61664;48.112;11.662;2022-10-17T13:32:38;96322.41;;;28.15
34310;BMP280;61664;48.112;11.662;2022-10-17T13:35:23;96321.31;;;28.18
34310;BMP280;61664;48.112;11.662;2022-10-17T13:38:12;96318.34;;;28.24
34310;BMP280;61664;48.112;11.662;2022-10-17T13:40:42;96328.84;;;28.35
34310;BMP280;61664;48.112;11.662;2022-10-17T13:43:21;96323.72;;;28.39
34310;BMP280;61664;48.112;11.662;2022-10-17T13:45:54;96325.13;;;28.48
34310;BMP280;61664;48.112;11.662;2022-10-17T13:48:31;96328.25;;;28.61
34310;BMP280;61664;48.112;11.662;2022-10-17T13:51:01;96317.78;;;28.67
34310;BMP280;61664;48.112;11.662;2022-10-17T13:53:34;96314.38;;;28.77
34310;BMP280;61664;48.112;11.662;2022-10-17T13:56:15;96321.00;;;28.91
34310;BMP280;61664;48.112;11.662;2022-10-17T13:59:02;96316.91;;;28.99
34310;BMP280;61664;48.112;11.662;2022-10-17T14:01:33;96318.06;;;29.06
34310;BMP280;61664;48.112;11.662;2022-10-17T14:04:00;96322.44;;;29.26
34310;BMP280;61664;48.112;11.662;2022-10-17T14:06:43;96309.91;;;29.59
34310;BMP280;61664;48.112;11.662;2022-10-17T14:09:21;96320.16;;;30.22
34310;BMP280;61664;48.112;11.662;2022-10-17T14:12:11;96317.34;;;31.16
34310;BMP280;61664;48.112;11.662;2022-10-17T14:14:46;96321.19;;;31.82
34310;BMP280;61664;48.112;11.662;2022-10-17T14:17:34;96326.09;;;32.45
34310;BMP280;61664;48.112;11.662;2022-10-17T14:20:03;96331.56;;;33.21
34310;BMP280;61664;48.112;11.662;2022-10-17T14:22:51;96321.28;;;33.68
34310;BMP280;61664;48.112;11.662;2022-10-17T14:25:39;96323.47;;;33.58
34310;BMP280;61664;48.112;11.662;2022-10-17T14:30:48;96321.44;;;32.81
34310;BMP280;61664;48.112;11.662;2022-10-17T14:33:28;96331.84;;;32.59
34310;BMP280;61664;48.112;11.662;2022-10-17T14:35:58;96339.66;;;32.41
34310;BMP280;61664;48.112;11.662;2022-10-17T14:38:28;96334.66;;;32.28
34310;BMP280;61664;48.112;11.662;2022-10-17T14:41:02;96335.84;;;32.25
34310;BMP280;61664;48.112;11.662;2022-10-17T14:44:01;96331.88;;;32.28
34310;BMP280;61664;48.112;11.662;2022-10-17T14:46:33;96331.63;;;32.67
34310;BMP280;61664;48.112;11.662;2022-10-17T14:49:15;96332.09;;;33.40
34310;BMP280;61664;48.112;11.662;2022-10-17T14:54:56;96343.84;;;35.46
34310;BMP280;61664;48.112;11.662;2022-10-17T14:59:59;96338.50;;;37.53
34310;BMP280;61664;48.112;11.662;2022-10-17T15:02:28;96341.00;;;38.29
34310;BMP280;61664;48.112;11.662;2022-10-17T15:04:56;96343.38;;;38.90
34310;BMP280;61664;48.112;11.662;2022-10-17T15:07:23;96347.31;;;39.40
34310;BMP280;61664;48.112;11.662;2022-10-17T15:09:52;96350.28;;;39.85
34310;BMP280;61664;48.112;11.662;2022-10-17T15:12:23;96353.66;;;40.01
34310;BMP280;61664;48.112;11.662;2022-10-17T15:14:51;96355.97;;;39.48
34310;BMP280;61664;48.112;11.662;2022-10-17T15:17:23;96348.44;;;38.58
34310;BMP280;61664;48.112;11.662;2022-10-17T15:19:51;96353.59;;;37.64
34310;BMP280;61664;48.112;11.662;2022-10-17T15:22:18;96352.06;;;36.69
34310;BMP280;61664;48.112;11.662;2022-10-17T15:24:46;96361.69;;;35.96
34310;BMP280;61664;48.112;11.662;2022-10-17T15:27:19;96357.66;;;35.19
34310;BMP280;61664;48.112;11.662;2022-10-17T15:29:47;96363.75;;;34.53
34310;BMP280;61664;48.112;11.662;2022-10-17T15:32:15;96358.16;;;34.05
34310;BMP280;61664;48.112;11.662;2022-10-17T15:34:42;96366.47;;;33.70
34310;BMP280;61664;48.112;11.662;2022-10-17T15:37:18;96368.03;;;33.17
34310;BMP280;61664;48.112;11.662;2022-10-17T15:39:51;96362.38;;;32.61
34310;BMP280;61664;48.112;11.662;2022-10-17T15:42:27;96373.78;;;32.03
34310;BMP280;61664;48.112;11.662;2022-10-17T15:44:55;96366.78;;;31.52
34310;BMP280;61664;48.112;11.662;2022-10-17T15:47:31;96368.59;;;31.00
34310;BMP280;61664;48.112;11.662;2022-10-17T15:50:02;96369.44;;;30.54
34310;BMP280;61664;48.112;11.662;2022-10-17T15:52:29;96373.66;;;30.09
34310;BMP280;61664;48.112;11.662;2022-10-17T15:54:56;96381.56;;;29.69
34310;BMP280;61664;48.112;11.662;2022-10-17T15:57:33;96381.72;;;29.27
34310;BMP280;61664;48.112;11.662;2022-10-17T16:00:01;96382.09;;;28.89
34310;BMP280;61664;48.112;11.662;2022-10-17T16:02:28;96375.63;;;28.52
34310;BMP280;61664;48.112;11.662;2022-10-17T16:04:55;96380.31;;;28.17
34310;BMP280;61664;48.112;11.662;2022-10-17T16:07:22;96383.75;;;27.86
34310;BMP280;61664;48.112;11.662;2022-10-17T16:09:48;96392.31;;;27.57
34310;BMP280;61664;48.112;11.662;2022-10-17T16:12:27;96396.06;;;27.22
34310;BMP280;61664;48.112;11.662;2022-10-17T16:14:55;96397.75;;;26.95
34310;BMP280;61664;48.112;11.662;2022-10-17T16:17:22;96402.00;;;26.73
34310;BMP280;61664;48.112;11.662;2022-10-17T16:19:49;96409.66;;;26.44
34310;BMP280;61664;48.112;11.662;2022-10-17T16:22:29;96404.63;;;26.12
34310;BMP280;61664;48.112;11.662;2022-10-17T16:25:09;96416.81;;;25.88